Terminal Aerodrome Forecast
Issued by NWS

Home | Current Version | Previous Version | Text Only | Print | Product List | Glossary Off
Versions: 1 2 3 4 5 6 7 8 9 10 11 12 13 14 15 16 17 18 19 20 21 22 23 24 25 26 27

000
FTUS43 KTOP 180300 AAA
TAFFOE
TAF AMD
KFOE 180337Z 1804/1824 07005KT 4SM BR SCT015
     FM180600 08004KT 2SM BR SCT003
     FM180800 08004KT 1SM BR SCT002
      TEMPO 1810/1813 1/2SM FG BKN002
     FM181400 10009KT 2SM BR BKN008
     FM181500 10009KT 6SM BR BKN015
     FM181700 11008KT P6SM SCT025 BKN150=

USA.gov is the U.S. government's official web portal to all federal, state and local government web resources and services.